Station: Ngayawili (Elcho Island)  

  Atmospheric Gas Attenuation - ITU Rec 676-11   ----------------- dB/100km -----------------
Date Time Temp RH % AH g/m3 Dew Point Wind Direction Speed kph Gust kph Barometer mB Rainfall Since 9am 24GHz 47GHz 76GHz 122GHz 134GHz 241GHz
08/05 13:10 30.9 59 18.79 22.2 26 33 1009.6 0 39.9 36.8 70.3 186.1 204.4 710.5
08/05 13:00 30.9 61 19.42 22.5 20 32 1009.8 0 41.2 37.9 73.1 193.4 213.3 741.8
08/05 12:50 30.7 59 18.58 22 22 28 1009.9 0 39.5 36.6 69.6 184.2 202.0 702.2
08/05 12:40 30.6 64 20.05 23 15 22 1010.1 0 42.6 39.2 76.2 201.6 223.4 776.6
08/05 12:30 30 67 20.32 23.2 19 30 1010.2 0 43.2 40.0 78.0 206.5 229.1 796.6
08/05 12:20 30.4 65 20.15 23.1 19 24 1010.3 0 42.8 39.5 76.8 203.4 225.4 783.8
08/05 12:10 30.1 63 19.21 22.5 24 30 1010.4 0 40.9 37.9 72.9 193.0 212.7 739.3
08/05 12:00 30.8 67 21.22 24 20 33 1010.4 0 45.0 41.3 81.3 215.2 240.1 834.8
08/05 11:50 30.5 65 20.25 23.2 26 33 1010.5 0 43.0 39.6 77.2 204.4 226.6 788.0
08/05 11:40 30.2 65 19.93 22.9 20 24 1010.8 0 42.4 39.2 76.1 201.4 222.9 774.9
08/05 11:30 29.9 67 20.21 23.1 20 32 1010.9 0 43.0 39.9 77.7 205.5 227.9 792.4
08/05 11:20 30.3 69 21.27 24 13 19 1011 0 45.2 41.6 82.1 217.4 242.5 843.3
08/05 11:10 30 67 20.32 23.4 15 20 1011.1 0 43.2 40.0 78.1 206.6 229.3 797.1
08/05 11:00 30 67 20.32 23.4 19 37 1011.3 0 43.2 40.0 78.1 206.7 229.3 797.2
08/05 10:50 29.7 71 21.19 23.9 13 19 1011.4 0 45.1 41.8 82.4 218.2 243.3 845.9
08/05 10:40 29 70 20.11 23 26 35 1011.5 0 42.9 40.1 78.2 206.9 229.3 796.9
08/05 10:30 28.9 71 20.29 23.1 24 39 1011.6 0 43.3 40.5 79.1 209.3 232.3 807.4
08/05 10:20 29 71 20.4 23.2 20 24 1011.8 0 43.5 40.7 79.5 210.5 233.7 812.2
08/05 10:10 28.7 73 20.63 23.4 22 28 1011.9 0 44.0 41.3 80.9 214.1 238.1 827.6
08/05 10:00 28.1 76 20.78 23.5 19 24 1011.9 0 44.4 41.8 82.3 217.7 242.3 842.2
08/05 09:50 28 74 20.13 23.1 22 30 1011.9 0 43.0 40.7 79.3 209.9 232.7 808.7
08/05 09:40 28 74 20.13 22.9 20 24 1012 0 43.0 40.7 79.3 209.9 232.7 808.8
08/05 09:30 27.7 76 20.33 23.1 17 30 1012.1 0 43.5 41.2 80.6 213.3 236.7 822.7
08/05 09:20 27.4 76 20 22.8 20 22 1012 0 42.8 40.7 79.3 210.0 232.6 808.3
08/05 09:10 27.3 77 20.15 22.9 19 22 1012.1 0 43.2 41.1 80.2 212.1 235.2 817.4
08/05 09:00 26.8 78 19.85 22.6 15 24 1012.2 0 42.6 40.7 79.3 209.8 232.2 806.8
08/05 08:50 26.7 78 19.74 22.5 13 17 1012.2 0 42.4 40.6 78.9 208.7 230.8 802.0
08/05 08:40 26.1 81 19.83 22.6 17 19 1012.2 0 42.6 41.0 79.9 211.5 234.1 813.2
08/05 08:30 25.8 81 19.5 22.3 15 24 1012.1 0 41.9 40.6 78.7 208.1 229.9 798.6
08/05 08:20 25.4 82 19.3 22.1 13 17 1012 0 41.6 40.4 78.1 206.7 228.0 792.0
08/05 08:10 25.1 82 18.98 21.8 20 24 1012 0 40.9 39.9 76.9 203.5 224.0 778.0
08/05 08:00 25 85 19.57 22.3 13 19 1011.9 0 42.2 41.1 79.8 211.2 233.4 810.8
08/05 07:50 24.7 87 19.69 22.4 9 11 1011.8 0 42.5 41.4 80.7 213.6 236.3 820.6
08/05 07:40 24.1 90 19.69 22.4 11 15 1011.7 0 42.5 41.7 81.4 215.3 238.2 827.1
08/05 07:30 23.5 94 19.88 22.5 9 13 1011.7 0 43.0 42.4 82.9 219.5 243.2 844.4
08/05 07:20 23 97 19.94 22.5 9 11 1011.7 0 43.2 42.8 83.8 221.8 245.8 853.5
08/05 07:10 22.6 98 19.69 22.3 7 7 1011.6 0 42.7 42.5 83.0 219.6 243.0 843.8
08/05 07:00 22.2 98 19.24 21.9 6 9 1011.5 0 41.8 41.8 81.2 214.8 237.0 822.9
08/05 06:50 22.2 97 19.04 21.7 6 7 1011.4 0 41.4 41.4 80.2 212.2 233.8 811.6
08/05 06:40 22.2 97 19.04 21.7 7 7 1011.4 0 41.4 41.4 80.2 212.2 233.8 811.6
08/05 06:30 22.3 96 18.95 21.6 6 7 1011.4 0 41.2 41.2 79.6 210.7 232.0 805.5
08/05 06:20 22.5 95 18.97 21.7 6 7 1011.4 0 41.2 41.1 79.5 210.4 231.7 804.4
08/05 06:10 22.7 95 19.19 21.9 7 7 1011.4 0 41.6 41.5 80.4 212.7 234.6 814.5
08/05 06:00 22.9 94 19.21 21.9 7 11 1011.3 0 41.6 41.4 80.3 212.4 234.3 813.4
08/05 05:50 22.9 94 19.21 21.9 7 9 1011.2 0 41.6 41.4 80.3 212.4 234.2 813.4
08/05 05:40 23.1 94 19.43 22.1 7 9 1011.1 0 42.1 41.7 81.1 214.7 237.1 823.4
08/05 05:30 23.2 94 19.54 22.2 9 15 1011.1 0 42.3 41.9 81.6 215.8 238.6 828.4
08/05 05:20 23.2 94 19.54 22.2 9 11 1011 0 42.3 41.9 81.6 215.8 238.5 828.3
08/05 05:10 23.4 93 19.55 22.2 9 11 1010.9 0 42.3 41.8 81.4 215.3 238.0 826.6
08/05 05:00 23.5 93 19.67 22.3 13 19 1010.8 0 42.6 42.0 81.9 216.6 239.6 832.2
08/05 04:50 23.5 93 19.67 22.3 11 13 1010.7 0 42.6 42.0 81.8 216.6 239.6 832.1
08/05 04:40 23.6 93 19.78 22.4 13 15 1010.8 0 42.8 42.1 82.3 217.7 241.1 837.2
08/05 04:30 23.6 93 19.78 22.4 13 17 1010.8 0 42.8 42.1 82.3 217.7 241.1 837.2
08/05 04:20 23.7 93 19.89 22.5 11 15 1010.8 0 43.0 42.3 82.7 218.9 242.5 842.2
08/05 04:10 23.8 92 19.79 22.4 11 13 1010.8 0 42.8 42.1 82.1 217.3 240.6 835.5
08/05 04:00 24.1 91 19.91 22.5 13 20 1010.9 0 43.0 42.1 82.4 218.0 241.5 838.9
08/05 03:50 24 91 19.8 22.4 11 15 1011 0 42.8 42.0 82.0 216.9 240.1 833.9
08/05 03:40 23.9 92 19.9 22.5 13 19 1011 0 43.0 42.2 82.6 218.5 242.0 840.6
08/05 03:30 23.9 92 19.9 22.5 13 19 1011.1 0 43.0 42.2 82.6 218.5 242.1 840.7
08/05 03:20 23.9 92 19.9 22.5 13 15 1011 0 43.0 42.2 82.6 218.5 242.0 840.6
08/05 03:10 23.9 91 19.69 22.3 11 13 1011.1 0 42.6 41.8 81.5 215.7 238.7 829.0
08/05 03:00 24 91 19.8 22.4 13 20 1011.1 0 42.8 42.0 82.0 216.9 240.1 834.0
08/05 02:50 24.1 90 19.69 22.4 15 19 1011.1 0 42.5 41.7 81.3 215.2 238.1 826.8
08/05 02:40 24.1 90 19.69 22.4 15 17 1011.2 0 42.5 41.7 81.3 215.2 238.1 826.8
08/05 02:30 24.1 90 19.69 22.4 15 20 1011.3 0 42.5 41.7 81.3 215.2 238.1 826.9
08/05 02:20 24.1 90 19.69 22.4 13 17 1011.4 0 42.5 41.7 81.3 215.2 238.1 827.0
08/05 02:10 24.1 90 19.69 22.4 13 17 1011.5 0 42.5 41.7 81.3 215.2 238.1 827.0
08/05 02:00 24.2 90 19.8 22.5 15 22 1011.5 0 42.8 41.9 81.8 216.4 239.6 832.0
08/05 01:50 24.2 90 19.8 22.5 17 20 1011.6 0 42.8 41.9 81.8 216.4 239.6 832.0
08/05 01:40 24.3 90 19.92 22.6 15 20 1011.6 0 43.0 42.1 82.3 217.7 241.2 837.6
08/05 01:30 24.3 89 19.69 22.4 15 22 1011.6 0 42.5 41.6 81.1 214.7 237.5 824.9
08/05 01:20 24.4 89 19.81 22.5 17 22 1011.8 0 42.8 41.8 81.6 216.0 239.1 830.5
08/05 01:10 24.4 88 19.58 22.3 17 20 1011.9 0 42.3 41.4 80.5 213.0 235.5 817.9
08/05 01:00 24.5 88 19.69 22.4 17 26 1011.9 0 42.5 41.6 80.9 214.2 236.9 822.8
08/05 00:50 24.5 88 19.69 22.4 15 20 1011.9 0 42.5 41.6 80.9 214.2 236.9 822.8
08/05 00:40 24.5 88 19.69 22.4 19 24 1012 0 42.5 41.6 80.9 214.2 236.9 822.9
08/05 00:30 24.5 88 19.69 22.4 19 24 1012.1 0 42.5 41.6 80.9 214.2 236.9 822.9
08/05 00:20 24.5 87 19.47 22.2 20 22 1012.2 0 42.0 41.1 79.9 211.4 233.5 810.9
08/05 00:10 24.6 87 19.58 22.3 20 24 1012.2 0 42.2 41.3 80.3 212.5 234.9 815.9
08/05 00:00 24.6 87 19.58 22.3 19 26 1012.3 0 42.2 41.3 80.3 212.5 234.9 815.9
07/05 23:50 24.7 86 19.47 22.2 20 26 1012.3 0 42.0 41.0 79.7 210.8 232.9 808.8
07/05 23:40 24.7 86 19.47 22.2 17 24 1012.4 0 42.0 41.1 79.7 210.8 232.9 808.9
07/05 23:30 24.8 86 19.57 22.3 19 26 1012.5 0 42.2 41.2 80.1 211.9 234.2 813.3
07/05 23:20 24.8 85 19.35 22.1 19 24 1012.5 0 41.7 40.8 79.0 209.1 230.7 801.3
07/05 23:10 25 85 19.57 22.3 19 24 1012.5 0 42.2 41.1 79.9 211.3 233.5 811.2
07/05 23:00 25 85 19.57 22.3 17 26 1012.5 0 42.2 41.1 79.9 211.3 233.5 811.2
07/05 22:50 25.1 84 19.45 22.2 15 20 1012.7 0 41.9 40.8 79.2 209.5 231.4 803.7
07/05 22:40 25.2 84 19.55 22.3 17 20 1012.7 0 42.1 41.0 79.6 210.5 232.6 808.0
07/05 22:30 25.2 83 19.32 22.1 19 28 1012.7 0 41.6 40.5 78.5 207.6 229.0 795.6
07/05 22:20 25.4 83 19.54 22.3 17 24 1012.6 0 42.1 40.8 79.3 209.8 231.8 805.3
07/05 22:10 25.4 83 19.54 22.3 19 24 1012.8 0 42.1 40.9 79.3 209.9 231.9 805.4
07/05 22:00 25.6 82 19.52 22.3 19 26 1012.7 0 42.0 40.7 79.0 209.0 230.9 802.1
07/05 21:50 25.7 82 19.63 22.4 17 20 1012.8 0 42.2 40.9 79.4 210.2 232.3 807.1
07/05 21:40 25.9 81 19.61 22.4 19 22 1012.9 0 42.2 40.8 79.1 209.4 231.4 803.9
07/05 21:30 26 80 19.48 22.3 20 30 1012.9 0 41.9 40.5 78.4 207.5 229.1 795.9
07/05 21:20 26.1 80 19.59 22.4 19 20 1012.8 0 42.1 40.6 78.8 208.5 230.5 800.6
07/05 21:10 26.2 80 19.69 22.5 17 22 1012.7 0 42.3 40.7 79.2 209.5 231.7 804.9
07/05 21:00 26.4 79 19.67 22.5 17 30 1012.7 0 42.2 40.6 78.9 208.7 230.7 801.7
07/05 20:50 26.5 79 19.78 22.6 20 24 1012.7 0 42.5 40.8 79.3 209.8 232.1 806.5
07/05 20:40 26.7 77 19.49 22.3 19 22 1012.7 0 41.8 40.1 77.7 205.6 227.1 789.0

Last Refresh: 08-May-2026 13:19:51

Bureau of Meteorology